sensor_id;sensor_type;location;lat;lon;timestamp;P1;durP1;ratioP1;P2;durP2;ratioP2
12848;SDS011;6493;50.928;7.172;2022-11-20T00:02:47;3.30;;;2.60;;
12848;SDS011;6493;50.928;7.172;2022-11-20T00:07:52;3.27;;;2.97;;
12848;SDS011;6493;50.928;7.172;2022-11-20T00:12:57;3.80;;;3.20;;
12848;SDS011;6493;50.928;7.172;2022-11-20T00:18:01;4.50;;;4.03;;
12848;SDS011;6493;50.928;7.172;2022-11-20T00:23:06;3.30;;;2.97;;
12848;SDS011;6493;50.928;7.172;2022-11-20T00:28:09;3.53;;;3.10;;
12848;SDS011;6493;50.928;7.172;2022-11-20T00:33:13;4.33;;;3.93;;
12848;SDS011;6493;50.928;7.172;2022-11-20T00:38:18;2.37;;;2.17;;
12848;SDS011;6493;50.928;7.172;2022-11-20T00:43:21;4.30;;;3.10;;
12848;SDS011;6493;50.928;7.172;2022-11-20T00:48:25;3.83;;;3.40;;
12848;SDS011;6493;50.928;7.172;2022-11-20T00:53:30;4.30;;;3.67;;
12848;SDS011;6493;50.928;7.172;2022-11-20T00:58:35;3.47;;;3.17;;
12848;SDS011;6493;50.928;7.172;2022-11-20T01:03:41;4.70;;;3.97;;
12848;SDS011;6493;50.928;7.172;2022-11-20T01:08:47;4.03;;;3.27;;
12848;SDS011;6493;50.928;7.172;2022-11-20T01:13:51;3.33;;;3.00;;
12848;SDS011;6493;50.928;7.172;2022-11-20T01:18:57;4.43;;;4.00;;
12848;SDS011;6493;50.928;7.172;2022-11-20T01:24:03;3.50;;;3.20;;
12848;SDS011;6493;50.928;7.172;2022-11-20T01:29:10;3.23;;;2.93;;
12848;SDS011;6493;50.928;7.172;2022-11-20T01:34:17;3.90;;;3.37;;
12848;SDS011;6493;50.928;7.172;2022-11-20T01:39:24;2.97;;;2.67;;
12848;SDS011;6493;50.928;7.172;2022-11-20T01:50:03;2.60;;;2.30;;
12848;SDS011;6493;50.928;7.172;2022-11-20T01:55:12;4.00;;;3.53;;
12848;SDS011;6493;50.928;7.172;2022-11-20T02:00:19;4.13;;;3.70;;
12848;SDS011;6493;50.928;7.172;2022-11-20T02:05:24;4.87;;;4.23;;
12848;SDS011;6493;50.928;7.172;2022-11-20T02:10:33;4.27;;;3.77;;
12848;SDS011;6493;50.928;7.172;2022-11-20T02:15:37;5.27;;;4.77;;
12848;SDS011;6493;50.928;7.172;2022-11-20T02:20:40;4.17;;;3.77;;
12848;SDS011;6493;50.928;7.172;2022-11-20T02:25:47;4.40;;;3.73;;
12848;SDS011;6493;50.928;7.172;2022-11-20T02:30:54;4.07;;;3.33;;
12848;SDS011;6493;50.928;7.172;2022-11-20T02:35:57;2.83;;;2.30;;
12848;SDS011;6493;50.928;7.172;2022-11-20T02:41:02;5.43;;;4.43;;
12848;SDS011;6493;50.928;7.172;2022-11-20T02:46:06;3.40;;;3.10;;
12848;SDS011;6493;50.928;7.172;2022-11-20T02:51:10;2.73;;;2.43;;
12848;SDS011;6493;50.928;7.172;2022-11-20T02:56:14;2.90;;;2.47;;
12848;SDS011;6493;50.928;7.172;2022-11-20T03:01:18;4.57;;;4.13;;
12848;SDS011;6493;50.928;7.172;2022-11-20T03:06:22;4.63;;;3.77;;
12848;SDS011;6493;50.928;7.172;2022-11-20T03:11:27;4.10;;;3.70;;
12848;SDS011;6493;50.928;7.172;2022-11-20T03:16:31;3.90;;;3.50;;
12848;SDS011;6493;50.928;7.172;2022-11-20T03:21:35;3.20;;;2.90;;
12848;SDS011;6493;50.928;7.172;2022-11-20T03:26:40;4.97;;;4.20;;
12848;SDS011;6493;50.928;7.172;2022-11-20T03:31:44;4.10;;;3.70;;
12848;SDS011;6493;50.928;7.172;2022-11-20T03:36:47;4.37;;;3.57;;
12848;SDS011;6493;50.928;7.172;2022-11-20T03:41:53;4.97;;;3.83;;
12848;SDS011;6493;50.928;7.172;2022-11-20T03:46:56;3.83;;;3.37;;
12848;SDS011;6493;50.928;7.172;2022-11-20T03:52:00;3.80;;;3.30;;
12848;SDS011;6493;50.928;7.172;2022-11-20T03:57:05;4.97;;;4.30;;
12848;SDS011;6493;50.928;7.172;2022-11-20T04:02:08;5.23;;;4.50;;
12848;SDS011;6493;50.928;7.172;2022-11-20T04:07:12;2.63;;;2.43;;
12848;SDS011;6493;50.928;7.172;2022-11-20T04:12:17;3.27;;;2.70;;
12848;SDS011;6493;50.928;7.172;2022-11-20T04:17:20;4.20;;;3.30;;
12848;SDS011;6493;50.928;7.172;2022-11-20T04:22:24;3.43;;;2.47;;
12848;SDS011;6493;50.928;7.172;2022-11-20T04:27:29;4.33;;;3.90;;
12848;SDS011;6493;50.928;7.172;2022-11-20T04:32:33;3.63;;;3.20;;
12848;SDS011;6493;50.928;7.172;2022-11-20T04:37:37;4.63;;;3.80;;
12848;SDS011;6493;50.928;7.172;2022-11-20T04:42:42;3.60;;;2.57;;
12848;SDS011;6493;50.928;7.172;2022-11-20T04:47:45;3.67;;;3.20;;
12848;SDS011;6493;50.928;7.172;2022-11-20T04:52:49;3.70;;;3.30;;
12848;SDS011;6493;50.928;7.172;2022-11-20T04:57:54;3.03;;;2.70;;
12848;SDS011;6493;50.928;7.172;2022-11-20T05:02:58;2.30;;;2.10;;
12848;SDS011;6493;50.928;7.172;2022-11-20T05:08:01;3.33;;;3.00;;
12848;SDS011;6493;50.928;7.172;2022-11-20T05:13:06;2.20;;;2.00;;
12848;SDS011;6493;50.928;7.172;2022-11-20T05:18:10;1.83;;;1.57;;
12848;SDS011;6493;50.928;7.172;2022-11-20T05:23:14;1.63;;;1.37;;
12848;SDS011;6493;50.928;7.172;2022-11-20T05:28:18;1.70;;;1.60;;
12848;SDS011;6493;50.928;7.172;2022-11-20T05:33:23;2.07;;;1.83;;
12848;SDS011;6493;50.928;7.172;2022-11-20T05:38:27;1.87;;;1.77;;
12848;SDS011;6493;50.928;7.172;2022-11-20T05:43:33;1.83;;;1.63;;
12848;SDS011;6493;50.928;7.172;2022-11-20T05:48:37;1.80;;;1.40;;
12848;SDS011;6493;50.928;7.172;2022-11-20T05:53:42;1.60;;;1.50;;
12848;SDS011;6493;50.928;7.172;2022-11-20T05:58:51;2.07;;;1.80;;
12848;SDS011;6493;50.928;7.172;2022-11-20T06:03:54;1.60;;;1.50;;
12848;SDS011;6493;50.928;7.172;2022-11-20T06:08:58;2.03;;;1.67;;
12848;SDS011;6493;50.928;7.172;2022-11-20T06:14:03;2.13;;;1.80;;
12848;SDS011;6493;50.928;7.172;2022-11-20T06:19:07;2.13;;;1.93;;
12848;SDS011;6493;50.928;7.172;2022-11-20T06:24:10;2.30;;;2.07;;
12848;SDS011;6493;50.928;7.172;2022-11-20T06:29:15;2.63;;;2.30;;
12848;SDS011;6493;50.928;7.172;2022-11-20T06:34:19;2.67;;;2.17;;
12848;SDS011;6493;50.928;7.172;2022-11-20T06:39:23;2.47;;;2.07;;
12848;SDS011;6493;50.928;7.172;2022-11-20T06:44:28;2.30;;;2.10;;
12848;SDS011;6493;50.928;7.172;2022-11-20T06:49:31;3.30;;;2.90;;
12848;SDS011;6493;50.928;7.172;2022-11-20T06:54:36;2.90;;;2.47;;
12848;SDS011;6493;50.928;7.172;2022-11-20T06:59:41;2.50;;;2.30;;
12848;SDS011;6493;50.928;7.172;2022-11-20T07:04:44;2.53;;;2.23;;
12848;SDS011;6493;50.928;7.172;2022-11-20T07:09:48;3.70;;;3.10;;
12848;SDS011;6493;50.928;7.172;2022-11-20T07:14:53;2.47;;;2.17;;
12848;SDS011;6493;50.928;7.172;2022-11-20T07:19:56;2.50;;;2.13;;
12848;SDS011;6493;50.928;7.172;2022-11-20T07:25:00;2.33;;;2.13;;
12848;SDS011;6493;50.928;7.172;2022-11-20T07:30:06;2.73;;;2.43;;
12848;SDS011;6493;50.928;7.172;2022-11-20T07:35:10;3.87;;;3.20;;
12848;SDS011;6493;50.928;7.172;2022-11-20T07:40:14;3.43;;;2.93;;
12848;SDS011;6493;50.928;7.172;2022-11-20T07:45:20;2.40;;;2.20;;
12848;SDS011;6493;50.928;7.172;2022-11-20T07:50:25;2.40;;;2.20;;
12848;SDS011;6493;50.928;7.172;2022-11-20T07:55:28;2.63;;;2.20;;
12848;SDS011;6493;50.928;7.172;2022-11-20T08:00:33;2.50;;;2.27;;
12848;SDS011;6493;50.928;7.172;2022-11-20T08:05:37;3.87;;;3.17;;
12848;SDS011;6493;50.928;7.172;2022-11-20T08:10:40;2.97;;;2.53;;
12848;SDS011;6493;50.928;7.172;2022-11-20T08:15:48;2.43;;;2.23;;
12848;SDS011;6493;50.928;7.172;2022-11-20T08:20:53;2.63;;;2.40;;
12848;SDS011;6493;50.928;7.172;2022-11-20T08:25:57;3.27;;;2.67;;
12848;SDS011;6493;50.928;7.172;2022-11-20T08:31:02;3.37;;;3.07;;
12848;SDS011;6493;50.928;7.172;2022-11-20T08:36:06;4.30;;;3.77;;
12848;SDS011;6493;50.928;7.172;2022-11-20T08:41:10;3.17;;;2.63;;
12848;SDS011;6493;50.928;7.172;2022-11-20T08:46:32;2.90;;;2.60;;
12848;SDS011;6493;50.928;7.172;2022-11-20T08:51:38;2.63;;;2.13;;
12848;SDS011;6493;50.928;7.172;2022-11-20T08:56:43;2.43;;;2.23;;
12848;SDS011;6493;50.928;7.172;2022-11-20T09:01:48;2.60;;;2.40;;
12848;SDS011;6493;50.928;7.172;2022-11-20T09:06:51;3.40;;;3.00;;
12848;SDS011;6493;50.928;7.172;2022-11-20T09:11:56;2.70;;;2.50;;
12848;SDS011;6493;50.928;7.172;2022-11-20T09:17:00;4.60;;;3.60;;
12848;SDS011;6493;50.928;7.172;2022-11-20T09:27:33;3.10;;;2.73;;
12848;SDS011;6493;50.928;7.172;2022-11-20T09:32:39;2.03;;;1.83;;
12848;SDS011;6493;50.928;7.172;2022-11-20T09:37:43;2.63;;;2.43;;
12848;SDS011;6493;50.928;7.172;2022-11-20T09:42:47;3.50;;;3.00;;
12848;SDS011;6493;50.928;7.172;2022-11-20T09:48:06;5.27;;;4.70;;
12848;SDS011;6493;50.928;7.172;2022-11-20T09:53:30;6.37;;;5.03;;
12848;SDS011;6493;50.928;7.172;2022-11-20T09:58:44;6.87;;;6.00;;
12848;SDS011;6493;50.928;7.172;2022-11-20T10:03:54;5.93;;;4.83;;
12848;SDS011;6493;50.928;7.172;2022-11-20T10:09:03;4.30;;;3.90;;
12848;SDS011;6493;50.928;7.172;2022-11-20T10:14:26;9.20;;;7.17;;
12848;SDS011;6493;50.928;7.172;2022-11-20T10:19:43;5.63;;;4.80;;
12848;SDS011;6493;50.928;7.172;2022-11-20T10:24:59;4.40;;;4.00;;
12848;SDS011;6493;50.928;7.172;2022-11-20T10:30:08;5.77;;;4.83;;
12848;SDS011;6493;50.928;7.172;2022-11-20T10:35:16;7.00;;;6.30;;
12848;SDS011;6493;50.928;7.172;2022-11-20T10:40:27;5.27;;;4.77;;
12848;SDS011;6493;50.928;7.172;2022-11-20T10:45:36;5.57;;;4.40;;
12848;SDS011;6493;50.928;7.172;2022-11-20T10:50:56;5.30;;;4.23;;
12848;SDS011;6493;50.928;7.172;2022-11-20T10:56:22;4.33;;;3.90;;
12848;SDS011;6493;50.928;7.172;2022-11-20T11:01:30;7.70;;;6.60;;
12848;SDS011;6493;50.928;7.172;2022-11-20T11:06:36;8.90;;;7.13;;
12848;SDS011;6493;50.928;7.172;2022-11-20T11:11:45;7.77;;;6.53;;
12848;SDS011;6493;50.928;7.172;2022-11-20T11:16:49;5.73;;;4.80;;
12848;SDS011;6493;50.928;7.172;2022-11-20T11:21:55;6.57;;;5.40;;
12848;SDS011;6493;50.928;7.172;2022-11-20T11:27:00;8.77;;;6.90;;
12848;SDS011;6493;50.928;7.172;2022-11-20T11:32:06;7.47;;;6.47;;
12848;SDS011;6493;50.928;7.172;2022-11-20T11:37:15;8.33;;;7.17;;
12848;SDS011;6493;50.928;7.172;2022-11-20T11:42:21;8.00;;;6.57;;
12848;SDS011;6493;50.928;7.172;2022-11-20T11:47:25;9.37;;;7.80;;
12848;SDS011;6493;50.928;7.172;2022-11-20T11:52:34;10.37;;;8.07;;
12848;SDS011;6493;50.928;7.172;2022-11-20T11:57:46;12.00;;;9.00;;
12848;SDS011;6493;50.928;7.172;2022-11-20T12:02:56;9.90;;;8.10;;
12848;SDS011;6493;50.928;7.172;2022-11-20T12:08:12;7.33;;;6.63;;
12848;SDS011;6493;50.928;7.172;2022-11-20T12:13:26;11.30;;;9.40;;
12848;SDS011;6493;50.928;7.172;2022-11-20T12:18:39;9.50;;;7.93;;
12848;SDS011;6493;50.928;7.172;2022-11-20T12:23:47;11.03;;;8.57;;
12848;SDS011;6493;50.928;7.172;2022-11-20T12:29:26;11.43;;;8.93;;
12848;SDS011;6493;50.928;7.172;2022-11-20T12:34:47;8.37;;;6.60;;
12848;SDS011;6493;50.928;7.172;2022-11-20T12:40:04;7.50;;;6.00;;
12848;SDS011;6493;50.928;7.172;2022-11-20T12:45:27;8.80;;;7.27;;
12848;SDS011;6493;50.928;7.172;2022-11-20T12:50:47;7.80;;;6.27;;
12848;SDS011;6493;50.928;7.172;2022-11-20T12:56:20;8.00;;;6.17;;
12848;SDS011;6493;50.928;7.172;2022-11-20T13:01:37;7.63;;;6.37;;
12848;SDS011;6493;50.928;7.172;2022-11-20T13:06:50;8.67;;;7.13;;
12848;SDS011;6493;50.928;7.172;2022-11-20T13:11:58;11.50;;;8.53;;
12848;SDS011;6493;50.928;7.172;2022-11-20T13:17:09;11.50;;;9.03;;
12848;SDS011;6493;50.928;7.172;2022-11-20T13:22:23;8.83;;;7.67;;
12848;SDS011;6493;50.928;7.172;2022-11-20T13:27:29;8.17;;;6.47;;
12848;SDS011;6493;50.928;7.172;2022-11-20T13:32:32;12.20;;;9.37;;
12848;SDS011;6493;50.928;7.172;2022-11-20T13:37:37;10.27;;;8.07;;
12848;SDS011;6493;50.928;7.172;2022-11-20T13:42:45;8.30;;;6.67;;
12848;SDS011;6493;50.928;7.172;2022-11-20T13:47:57;10.77;;;8.53;;
12848;SDS011;6493;50.928;7.172;2022-11-20T13:53:07;10.67;;;7.63;;
12848;SDS011;6493;50.928;7.172;2022-11-20T13:58:29;7.63;;;6.17;;
12848;SDS011;6493;50.928;7.172;2022-11-20T14:03:47;8.07;;;6.80;;
12848;SDS011;6493;50.928;7.172;2022-11-20T14:09:09;6.20;;;5.23;;
12848;SDS011;6493;50.928;7.172;2022-11-20T14:14:17;6.97;;;6.23;;
12848;SDS011;6493;50.928;7.172;2022-11-20T14:19:25;9.07;;;7.03;;
12848;SDS011;6493;50.928;7.172;2022-11-20T14:24:32;8.53;;;7.60;;
12848;SDS011;6493;50.928;7.172;2022-11-20T14:29:37;6.57;;;5.87;;
12848;SDS011;6493;50.928;7.172;2022-11-20T14:34:43;7.63;;;6.57;;
12848;SDS011;6493;50.928;7.172;2022-11-20T14:39:49;6.47;;;5.67;;
12848;SDS011;6493;50.928;7.172;2022-11-20T14:44:56;5.90;;;5.03;;
12848;SDS011;6493;50.928;7.172;2022-11-20T14:50:01;4.73;;;4.00;;
12848;SDS011;6493;50.928;7.172;2022-11-20T14:55:13;5.10;;;4.47;;
12848;SDS011;6493;50.928;7.172;2022-11-20T15:00:29;6.30;;;5.27;;
12848;SDS011;6493;50.928;7.172;2022-11-20T15:05:46;6.43;;;5.83;;
12848;SDS011;6493;50.928;7.172;2022-11-20T15:10:51;7.03;;;5.63;;
12848;SDS011;6493;50.928;7.172;2022-11-20T15:15:57;7.53;;;6.33;;
12848;SDS011;6493;50.928;7.172;2022-11-20T15:21:02;8.17;;;6.90;;
12848;SDS011;6493;50.928;7.172;2022-11-20T15:26:09;8.80;;;6.83;;
12848;SDS011;6493;50.928;7.172;2022-11-20T15:31:22;6.43;;;5.33;;
12848;SDS011;6493;50.928;7.172;2022-11-20T15:36:26;5.77;;;4.77;;
12848;SDS011;6493;50.928;7.172;2022-11-20T15:41:30;5.87;;;4.90;;
12848;SDS011;6493;50.928;7.172;2022-11-20T15:46:36;7.07;;;3.80;;
12848;SDS011;6493;50.928;7.172;2022-11-20T15:51:44;5.67;;;4.27;;
12848;SDS011;6493;50.928;7.172;2022-11-20T15:56:50;5.07;;;3.87;;
12848;SDS011;6493;50.928;7.172;2022-11-20T16:01:56;4.33;;;3.50;;
12848;SDS011;6493;50.928;7.172;2022-11-20T16:06:59;3.93;;;3.47;;
12848;SDS011;6493;50.928;7.172;2022-11-20T16:12:03;3.60;;;3.30;;
12848;SDS011;6493;50.928;7.172;2022-11-20T16:17:09;4.23;;;3.20;;
12848;SDS011;6493;50.928;7.172;2022-11-20T16:22:13;5.37;;;3.87;;
12848;SDS011;6493;50.928;7.172;2022-11-20T16:27:17;3.13;;;2.83;;
12848;SDS011;6493;50.928;7.172;2022-11-20T16:32:21;2.90;;;2.60;;
12848;SDS011;6493;50.928;7.172;2022-11-20T16:37:25;3.70;;;3.40;;
12848;SDS011;6493;50.928;7.172;2022-11-20T16:42:29;3.93;;;3.13;;
12848;SDS011;6493;50.928;7.172;2022-11-20T16:47:37;3.57;;;3.00;;
12848;SDS011;6493;50.928;7.172;2022-11-20T16:52:41;4.40;;;3.60;;
12848;SDS011;6493;50.928;7.172;2022-11-20T16:57:44;3.40;;;3.10;;
12848;SDS011;6493;50.928;7.172;2022-11-20T17:02:49;3.63;;;2.50;;
12848;SDS011;6493;50.928;7.172;2022-11-20T17:07:53;3.63;;;2.40;;
12848;SDS011;6493;50.928;7.172;2022-11-20T17:12:56;2.73;;;2.50;;
12848;SDS011;6493;50.928;7.172;2022-11-20T17:18:01;2.57;;;2.30;;
12848;SDS011;6493;50.928;7.172;2022-11-20T17:23:05;3.87;;;2.50;;
12848;SDS011;6493;50.928;7.172;2022-11-20T17:28:08;3.60;;;1.77;;
12848;SDS011;6493;50.928;7.172;2022-11-20T17:33:13;2.00;;;1.70;;
12848;SDS011;6493;50.928;7.172;2022-11-20T17:38:17;1.83;;;1.63;;
12848;SDS011;6493;50.928;7.172;2022-11-20T17:43:20;3.27;;;1.90;;
12848;SDS011;6493;50.928;7.172;2022-11-20T17:48:25;1.90;;;1.40;;
12848;SDS011;6493;50.928;7.172;2022-11-20T17:53:31;2.27;;;1.67;;
12848;SDS011;6493;50.928;7.172;2022-11-20T17:58:36;2.27;;;1.60;;
12848;SDS011;6493;50.928;7.172;2022-11-20T18:03:41;3.67;;;2.00;;
12848;SDS011;6493;50.928;7.172;2022-11-20T18:08:45;2.33;;;1.97;;
12848;SDS011;6493;50.928;7.172;2022-11-20T18:13:50;1.63;;;1.50;;
12848;SDS011;6493;50.928;7.172;2022-11-20T18:19:14;1.97;;;1.57;;
12848;SDS011;6493;50.928;7.172;2022-11-20T18:24:20;2.57;;;2.23;;
12848;SDS011;6493;50.928;7.172;2022-11-20T18:29:24;3.27;;;2.80;;
12848;SDS011;6493;50.928;7.172;2022-11-20T18:34:30;7.70;;;6.23;;
12848;SDS011;6493;50.928;7.172;2022-11-20T18:39:33;6.10;;;4.77;;
12848;SDS011;6493;50.928;7.172;2022-11-20T18:44:37;5.40;;;4.90;;
12848;SDS011;6493;50.928;7.172;2022-11-20T18:49:56;2.63;;;2.43;;
12848;SDS011;6493;50.928;7.172;2022-11-20T18:55:02;2.67;;;2.30;;
12848;SDS011;6493;50.928;7.172;2022-11-20T19:00:07;1.57;;;1.40;;
12848;SDS011;6493;50.928;7.172;2022-11-20T19:05:13;2.20;;;1.77;;
12848;SDS011;6493;50.928;7.172;2022-11-20T19:10:18;2.13;;;1.97;;
12848;SDS011;6493;50.928;7.172;2022-11-20T19:15:22;2.13;;;1.50;;
12848;SDS011;6493;50.928;7.172;2022-11-20T19:20:27;1.37;;;1.00;;
12848;SDS011;6493;50.928;7.172;2022-11-20T19:25:31;0.87;;;0.87;;
12848;SDS011;6493;50.928;7.172;2022-11-20T19:30:39;0.77;;;0.77;;
12848;SDS011;6493;50.928;7.172;2022-11-20T19:35:44;1.60;;;1.00;;
12848;SDS011;6493;50.928;7.172;2022-11-20T19:40:48;1.50;;;1.40;;
12848;SDS011;6493;50.928;7.172;2022-11-20T19:45:52;1.50;;;0.90;;
12848;SDS011;6493;50.928;7.172;2022-11-20T19:50:57;1.43;;;1.10;;
12848;SDS011;6493;50.928;7.172;2022-11-20T19:56:09;1.50;;;0.80;;
12848;SDS011;6493;50.928;7.172;2022-11-20T20:01:14;3.57;;;1.10;;
12848;SDS011;6493;50.928;7.172;2022-11-20T20:06:21;2.97;;;1.17;;
12848;SDS011;6493;50.928;7.172;2022-11-20T20:11:26;1.53;;;0.83;;
12848;SDS011;6493;50.928;7.172;2022-11-20T20:16:32;1.50;;;0.83;;
12848;SDS011;6493;50.928;7.172;2022-11-20T20:21:37;2.20;;;0.80;;
12848;SDS011;6493;50.928;7.172;2022-11-20T20:26:41;1.87;;;1.00;;
12848;SDS011;6493;50.928;7.172;2022-11-20T20:31:45;4.33;;;1.27;;
12848;SDS011;6493;50.928;7.172;2022-11-20T20:36:50;2.37;;;1.13;;
12848;SDS011;6493;50.928;7.172;2022-11-20T20:41:53;3.63;;;1.40;;
12848;SDS011;6493;50.928;7.172;2022-11-20T20:46:57;2.97;;;1.30;;
12848;SDS011;6493;50.928;7.172;2022-11-20T20:52:02;5.93;;;1.60;;
12848;SDS011;6493;50.928;7.172;2022-11-20T20:57:09;2.70;;;1.53;;
12848;SDS011;6493;50.928;7.172;2022-11-20T21:02:12;2.47;;;1.20;;
12848;SDS011;6493;50.928;7.172;2022-11-20T21:07:17;1.57;;;0.80;;
12848;SDS011;6493;50.928;7.172;2022-11-20T21:12:21;2.57;;;1.10;;
12848;SDS011;6493;50.928;7.172;2022-11-20T21:17:25;6.50;;;1.20;;
12848;SDS011;6493;50.928;7.172;2022-11-20T21:22:30;3.83;;;0.83;;
12848;SDS011;6493;50.928;7.172;2022-11-20T21:27:37;3.93;;;1.00;;
12848;SDS011;6493;50.928;7.172;2022-11-20T21:32:40;1.57;;;0.80;;
12848;SDS011;6493;50.928;7.172;2022-11-20T21:37:45;2.40;;;0.87;;
12848;SDS011;6493;50.928;7.172;2022-11-20T21:42:49;2.90;;;1.00;;
12848;SDS011;6493;50.928;7.172;2022-11-20T21:47:53;2.20;;;1.30;;
12848;SDS011;6493;50.928;7.172;2022-11-20T21:52:57;2.97;;;1.00;;
12848;SDS011;6493;50.928;7.172;2022-11-20T21:58:01;2.30;;;0.80;;
12848;SDS011;6493;50.928;7.172;2022-11-20T22:03:04;2.03;;;1.07;;
12848;SDS011;6493;50.928;7.172;2022-11-20T22:08:09;3.67;;;1.20;;
12848;SDS011;6493;50.928;7.172;2022-11-20T22:13:13;3.23;;;1.10;;
12848;SDS011;6493;50.928;7.172;2022-11-20T22:18:34;4.43;;;1.10;;
12848;SDS011;6493;50.928;7.172;2022-11-20T22:23:39;3.00;;;1.00;;
12848;SDS011;6493;50.928;7.172;2022-11-20T22:28:45;2.43;;;1.07;;
12848;SDS011;6493;50.928;7.172;2022-11-20T22:33:49;1.87;;;0.77;;
12848;SDS011;6493;50.928;7.172;2022-11-20T22:38:54;3.23;;;1.10;;
12848;SDS011;6493;50.928;7.172;2022-11-20T22:43:59;2.40;;;0.80;;
12848;SDS011;6493;50.928;7.172;2022-11-20T22:49:04;3.57;;;0.90;;
12848;SDS011;6493;50.928;7.172;2022-11-20T22:54:10;4.37;;;1.10;;
12848;SDS011;6493;50.928;7.172;2022-11-20T22:59:14;2.67;;;1.13;;
12848;SDS011;6493;50.928;7.172;2022-11-20T23:04:19;5.37;;;1.73;;
12848;SDS011;6493;50.928;7.172;2022-11-20T23:09:25;3.70;;;1.00;;
12848;SDS011;6493;50.928;7.172;2022-11-20T23:14:28;2.60;;;1.07;;
12848;SDS011;6493;50.928;7.172;2022-11-20T23:19:32;2.23;;;0.97;;
12848;SDS011;6493;50.928;7.172;2022-11-20T23:24:37;3.23;;;1.23;;
12848;SDS011;6493;50.928;7.172;2022-11-20T23:29:41;3.83;;;1.07;;
12848;SDS011;6493;50.928;7.172;2022-11-20T23:34:44;2.23;;;1.10;;
12848;SDS011;6493;50.928;7.172;2022-11-20T23:39:49;3.43;;;1.10;;
12848;SDS011;6493;50.928;7.172;2022-11-20T23:44:53;2.73;;;1.00;;
12848;SDS011;6493;50.928;7.172;2022-11-20T23:49:56;1.87;;;0.90;;
12848;SDS011;6493;50.928;7.172;2022-11-20T23:55:01;2.43;;;1.03;;
